aviador You're here:

RJCC Decoded Metar

SAPPORO in JAPAN
Report Time2018-05-21 20:00:00
UTC Time2018-05-21 20:36:29
Flight Rules vfr VFR
Wind170° at 03 kt
W.Decomp.*RWY 19: 2.9 kt HW 0.6 kt LCW
W.Rank170° ranks 1
Current wind is below 170° avg. (8.7)
Visibility9999 m
Phenomena:N/A
Clouds:Few 040 Hf
Expected CloudBase > 400 ft AGL from Temp-Dew spread
CeilingNone
Temp09°C (ISA -6)
Dew Point08°C (94% RH)
AAT7.5°C
QNH1017 hPa
Density Alt-587 ft
Elevation98 ft
Report Wrong Elevation
Raw Report
RJCC 212000Z 17003KT 9999 FEW040 BKN/// 09/08 Q1017 RMK 1CU040
A3003=

Extra information for RJCC:More info

Metar Taf Metar & Taf Last 4 Metars F.Rules Stats Wind Profile Meteogram Temp Stats Airport Information Weather charts Add Link Nearby VenuesMetar ALERT Operation Metar Decoded Social comments